createdAt,value
2023-04-03T00:01:42.077Z,2.90
2023-04-03T00:04:11.802Z,3.40
2023-04-03T00:06:41.214Z,2.90
2023-04-03T00:09:10.758Z,3.10
2023-04-03T00:11:40.412Z,4.40
2023-04-03T00:14:09.936Z,3.50
2023-04-03T00:16:39.107Z,4.80
2023-04-03T00:19:08.664Z,3.20
2023-04-03T00:21:37.866Z,3.90
2023-04-03T00:24:07.845Z,3.20
2023-04-03T00:26:37.229Z,2.90
2023-04-03T00:29:06.495Z,4.60
2023-04-03T00:31:36.027Z,3.80
2023-04-03T00:34:05.521Z,5.20
2023-04-03T00:36:34.963Z,5.30
2023-04-03T00:39:04.560Z,3.80
2023-04-03T00:41:34.335Z,3.60
2023-04-03T00:44:24.722Z,4.90
2023-04-03T00:46:53.892Z,4.00
2023-04-03T00:49:22.993Z,3.70
2023-04-03T00:51:53.181Z,4.60
2023-04-03T00:54:22.240Z,4.20
2023-04-03T00:56:54.220Z,5.70
2023-04-03T00:59:28.375Z,4.50
2023-04-03T01:01:58.564Z,4.90
2023-04-03T01:04:33.909Z,5.00
2023-04-03T01:07:08.470Z,4.90
2023-04-03T01:09:39.177Z,3.60
2023-04-03T01:12:28.102Z,4.90
2023-04-03T01:15:00.984Z,5.20
2023-04-03T01:17:55.464Z,4.90
2023-04-03T01:20:37.904Z,4.40
2023-04-03T01:23:10.634Z,3.40
2023-04-03T01:25:46.366Z,4.10
2023-04-03T01:28:21.885Z,5.10
2023-04-03T01:31:10.257Z,4.10
2023-04-03T01:33:40.109Z,2.90
2023-04-03T01:36:11.022Z,2.10
2023-04-03T01:38:40.418Z,4.40
2023-04-03T01:41:09.476Z,3.00
2023-04-03T01:43:38.993Z,3.20
2023-04-03T01:46:09.609Z,2.30
2023-04-03T01:48:38.995Z,3.40
2023-04-03T01:51:08.268Z,3.00
2023-04-03T01:53:38.258Z,2.90
2023-04-03T01:56:07.969Z,3.90
2023-04-03T01:58:37.425Z,2.90
2023-04-03T02:01:07.217Z,2.90
2023-04-03T02:03:36.336Z,4.60
2023-04-03T02:06:05.754Z,3.50
2023-04-03T02:08:34.998Z,3.30
2023-04-03T02:11:03.997Z,2.90
2023-04-03T02:13:33.398Z,3.10
2023-04-03T02:16:09.165Z,3.10
2023-04-03T02:18:38.947Z,3.10
2023-04-03T02:21:08.247Z,2.80
2023-04-03T02:23:38.729Z,3.20
2023-04-03T02:26:13.249Z,2.80
2023-04-03T02:28:45.162Z,3.10
2023-04-03T02:31:15.440Z,2.40
2023-04-03T02:33:44.546Z,2.30
2023-04-03T02:36:13.478Z,3.70
2023-04-03T02:38:42.345Z,3.40
2023-04-03T02:41:13.595Z,4.20
2023-04-03T02:43:43.806Z,3.00
2023-04-03T02:46:13.266Z,4.00
2023-04-03T02:48:42.632Z,3.80
2023-04-03T02:51:11.523Z,2.70
2023-04-03T02:53:40.751Z,3.60
2023-04-03T02:56:10.350Z,4.30
2023-04-03T02:58:39.950Z,2.50
2023-04-03T03:01:09.395Z,3.30
2023-04-03T03:03:39.524Z,3.50
2023-04-03T03:06:13.794Z,3.00
2023-04-03T03:08:43.193Z,2.40
2023-04-03T03:11:13.230Z,3.30
2023-04-03T03:13:43.023Z,2.60
2023-04-03T03:16:12.301Z,3.40
2023-04-03T03:18:41.808Z,2.80
2023-04-03T03:21:12.293Z,3.40
2023-04-03T03:23:42.327Z,2.70
2023-04-03T03:26:13.671Z,2.60
2023-04-03T03:28:42.847Z,2.30
2023-04-03T03:31:12.451Z,2.30
2023-04-03T03:33:41.521Z,3.20
2023-04-03T03:36:10.672Z,2.30
2023-04-03T03:38:39.760Z,3.60
2023-04-03T03:41:08.483Z,3.00
2023-04-03T03:43:37.466Z,2.80
2023-04-03T03:46:06.923Z,4.70
2023-04-03T03:48:36.191Z,3.80
2023-04-03T03:51:05.584Z,3.90
2023-04-03T03:53:34.925Z,4.10
2023-04-03T03:56:04.279Z,3.70
2023-04-03T03:58:34.192Z,5.50
2023-04-03T04:01:07.597Z,3.80
2023-04-03T04:03:37.506Z,3.40
2023-04-03T04:06:07.229Z,2.20
2023-04-03T04:08:36.402Z,3.50
2023-04-03T04:11:05.628Z,3.40
2023-04-03T04:13:35.138Z,2.30
2023-04-03T04:16:04.238Z,3.30
2023-04-03T04:18:33.427Z,2.50
2023-04-03T04:21:02.587Z,3.00
2023-04-03T04:23:31.873Z,2.70
2023-04-03T04:26:01.141Z,3.10
2023-04-03T04:28:30.921Z,4.60
2023-04-03T04:31:00.016Z,3.30
2023-04-03T04:33:29.175Z,4.30
2023-04-03T04:35:58.234Z,3.70
2023-04-03T04:38:27.684Z,4.20
2023-04-03T04:40:57.031Z,4.10
2023-04-03T04:43:26.299Z,2.70
2023-04-03T04:46:08.109Z,3.00
2023-04-03T04:48:37.824Z,4.90
2023-04-03T04:51:07.036Z,3.90
2023-04-03T04:53:36.338Z,4.90
2023-04-03T04:56:06.291Z,5.20
2023-04-03T04:58:35.902Z,5.20
2023-04-03T05:01:10.833Z,6.70
2023-04-03T05:03:40.298Z,6.00
2023-04-03T05:06:10.175Z,5.10
2023-04-03T05:08:40.118Z,6.30
2023-04-03T05:11:08.738Z,3.80
2023-04-03T05:13:37.737Z,3.50
2023-04-03T05:16:07.030Z,3.10
2023-04-03T05:18:36.797Z,4.00
2023-04-03T05:21:06.347Z,3.90
2023-04-03T05:23:35.138Z,2.30
2023-04-03T05:26:04.909Z,3.40
2023-04-03T05:28:34.209Z,3.80
2023-04-03T05:31:03.294Z,3.80
2023-04-03T05:33:32.721Z,5.10
2023-04-03T05:36:06.164Z,3.20
2023-04-03T05:38:35.521Z,2.50
2023-04-03T05:41:04.558Z,3.30
2023-04-03T05:43:34.379Z,3.00
2023-04-03T05:46:03.459Z,2.20
2023-04-03T05:48:33.003Z,2.10
2023-04-03T05:51:01.870Z,3.30
2023-04-03T05:53:34.989Z,2.90
2023-04-03T05:56:04.594Z,4.00
2023-04-03T05:58:33.846Z,1.80
2023-04-03T06:01:03.085Z,8.80
2023-04-03T06:03:32.335Z,4.80
2023-04-03T06:06:05.124Z,2.20
2023-04-03T06:08:35.136Z,3.60
2023-04-03T06:11:04.231Z,3.80
2023-04-03T06:13:33.678Z,3.60
2023-04-03T06:16:03.852Z,4.10
2023-04-03T06:18:33.394Z,3.60
2023-04-03T06:21:04.496Z,8.70
2023-04-03T06:23:34.093Z,4.50
2023-04-03T06:26:04.472Z,2.60
2023-04-03T06:28:33.426Z,3.70
2023-04-03T06:31:02.775Z,2.50
2023-04-03T06:33:32.252Z,2.70
2023-04-03T06:36:02.001Z,2.70
2023-04-03T06:38:31.238Z,3.40
2023-04-03T06:41:02.048Z,3.00
2023-04-03T06:43:35.026Z,4.10
2023-04-03T06:46:04.605Z,4.10
2023-04-03T06:48:33.808Z,7.60
2023-04-03T06:51:03.117Z,5.70
2023-04-03T06:53:32.577Z,4.00
2023-04-03T06:56:01.145Z,5.00
2023-04-03T06:58:30.908Z,3.20
2023-04-03T07:01:00.045Z,2.90
2023-04-03T07:03:29.228Z,3.20
2023-04-03T07:05:58.336Z,2.40
2023-04-03T07:08:27.681Z,2.50
2023-04-03T07:10:56.927Z,2.60
2023-04-03T07:13:25.765Z,3.00
2023-04-03T07:15:54.909Z,2.50
2023-04-03T07:18:24.577Z,3.80
2023-04-03T07:20:53.483Z,4.10
2023-04-03T07:23:23.507Z,2.90
2023-04-03T07:25:54.034Z,2.10
2023-04-03T07:28:27.365Z,2.90
2023-04-03T07:31:08.710Z,2.40
2023-04-03T07:33:38.388Z,4.00
2023-04-03T07:36:11.578Z,4.80
2023-04-03T07:38:41.081Z,2.70
2023-04-03T07:41:16.797Z,3.60
2023-04-03T07:43:46.534Z,2.60
2023-04-03T07:46:15.791Z,2.90
2023-04-03T07:48:44.701Z,2.40
2023-04-03T07:51:14.485Z,3.30
2023-04-03T07:53:43.545Z,3.70
2023-04-03T07:56:12.083Z,4.90
2023-04-03T07:58:41.203Z,4.40
2023-04-03T08:01:11.037Z,4.00
2023-04-03T08:03:41.084Z,4.50
2023-04-03T08:06:15.718Z,3.60
2023-04-03T08:08:45.735Z,3.70
2023-04-03T08:11:14.782Z,4.70
2023-04-03T08:13:44.897Z,3.80
2023-04-03T08:16:18.842Z,4.50
2023-04-03T08:18:48.268Z,3.60
2023-04-03T08:21:18.661Z,3.60
2023-04-03T08:23:51.997Z,4.50
2023-04-03T08:26:22.780Z,3.70
2023-04-03T08:28:51.875Z,3.30
2023-04-03T08:31:21.543Z,2.70
2023-04-03T08:33:50.811Z,2.90
2023-04-03T08:36:26.479Z,2.80
2023-04-03T08:38:57.815Z,3.20
2023-04-03T08:41:35.148Z,3.70
2023-04-03T08:44:16.405Z,4.80
2023-04-03T08:46:54.672Z,4.30
2023-04-03T08:49:34.864Z,4.80
2023-04-03T08:52:13.967Z,5.00
2023-04-03T08:55:07.564Z,3.70
2023-04-03T08:57:44.533Z,4.20
2023-04-03T09:00:22.464Z,4.90
2023-04-03T09:02:54.538Z,4.70
2023-04-03T09:06:01.551Z,4.90
2023-04-03T09:08:34.695Z,4.70
2023-04-03T09:11:25.532Z,3.30
2023-04-03T09:13:54.954Z,3.80
2023-04-03T09:16:29.905Z,3.00
2023-04-03T09:19:14.456Z,3.80
2023-04-03T09:21:44.460Z,3.80
2023-04-03T09:24:17.413Z,4.70
2023-04-03T09:27:01.662Z,3.10
2023-04-03T09:29:33.951Z,3.80
2023-04-03T09:32:18.036Z,4.20
2023-04-03T09:34:49.044Z,5.80
2023-04-03T09:37:41.136Z,5.40
2023-04-03T09:40:37.555Z,5.90
2023-04-03T09:43:20.710Z,5.00
2023-04-03T09:45:53.403Z,5.20
2023-04-03T09:48:29.853Z,3.60
2023-04-03T09:51:01.594Z,5.60
2023-04-03T09:53:39.480Z,4.70
2023-04-03T09:56:17.543Z,5.60
2023-04-03T09:58:52.121Z,3.70
2023-04-03T10:01:33.342Z,3.50
2023-04-03T10:04:09.215Z,3.40
2023-04-03T10:06:44.857Z,3.30
2023-04-03T10:09:29.664Z,3.20
2023-04-03T10:12:12.102Z,6.00
2023-04-03T10:14:58.711Z,3.80
2023-04-03T10:17:43.435Z,4.00
2023-04-03T10:20:24.964Z,3.70
2023-04-03T10:22:57.649Z,4.20
2023-04-03T10:25:41.711Z,3.60
2023-04-03T10:28:51.406Z,4.90
2023-04-03T10:31:50.972Z,3.70
2023-04-03T10:34:49.079Z,4.90
2023-04-03T10:38:02.754Z,3.40
2023-04-03T10:40:42.850Z,5.60
2023-04-03T10:43:37.233Z,4.80
2023-04-03T10:46:18.526Z,3.30
2023-04-03T10:49:06.381Z,5.30
2023-04-03T10:51:46.929Z,3.80
2023-04-03T10:54:35.169Z,5.10
2023-04-03T10:57:13.155Z,4.60
2023-04-03T10:59:55.495Z,5.40
2023-04-03T11:02:30.794Z,3.80
2023-04-03T11:05:11.861Z,3.50
2023-04-03T11:07:44.829Z,2.80
2023-04-03T11:10:19.084Z,4.80
2023-04-03T11:12:57.880Z,3.30
2023-04-03T11:15:29.277Z,2.70
2023-04-03T11:18:13.243Z,4.20
2023-04-03T11:20:49.616Z,4.20
2023-04-03T11:23:45.996Z,3.10
2023-04-03T11:26:30.023Z,3.30
2023-04-03T11:29:09.024Z,4.00
2023-04-03T11:32:15.443Z,3.30
2023-04-03T11:34:52.308Z,4.90
2023-04-03T11:37:57.144Z,4.40
2023-04-03T11:40:34.231Z,3.50
2023-04-03T11:43:22.470Z,3.80
2023-04-03T11:45:56.888Z,4.80
2023-04-03T11:48:33.463Z,3.50
2023-04-03T11:51:24.148Z,4.60
2023-04-03T11:53:53.708Z,6.00
2023-04-03T11:56:26.518Z,3.90
2023-04-03T11:59:15.305Z,5.70
2023-04-03T12:01:49.726Z,5.70
2023-04-03T12:04:22.415Z,4.70
2023-04-03T12:07:13.148Z,4.10
2023-04-03T12:09:43.702Z,4.60
2023-04-03T12:12:37.188Z,4.90
2023-04-03T12:15:23.112Z,3.30
2023-04-03T12:17:53.203Z,3.50
2023-04-03T12:20:53.278Z,3.10
2023-04-03T12:23:36.688Z,4.20
2023-04-03T12:26:59.625Z,3.50
2023-04-03T12:29:34.450Z,3.10
2023-04-03T12:33:11.733Z,4.60
2023-04-03T12:35:53.304Z,5.30
2023-04-03T12:38:57.457Z,3.80
2023-04-03T12:41:44.801Z,3.20
2023-04-03T12:44:38.774Z,8.10
2023-04-03T12:47:34.634Z,5.30
2023-04-03T12:50:17.552Z,3.60
2023-04-03T12:52:54.361Z,6.20
2023-04-03T12:55:24.386Z,4.50
2023-04-03T12:57:54.384Z,3.90
2023-04-03T13:00:34.062Z,4.50
2023-04-03T13:03:06.657Z,5.40
2023-04-03T13:05:37.142Z,5.10
2023-04-03T13:08:15.081Z,3.80
2023-04-03T13:11:00.229Z,3.80
2023-04-03T13:13:30.653Z,3.50
2023-04-03T13:15:59.951Z,4.60
2023-04-03T13:18:37.228Z,3.60
2023-04-03T13:21:17.244Z,4.40
2023-04-03T13:23:53.364Z,4.00
2023-04-03T13:26:31.358Z,4.50
2023-04-03T13:29:09.461Z,4.80
2023-04-03T13:31:41.534Z,3.50
2023-04-03T13:34:21.761Z,5.00
2023-04-03T13:37:00.505Z,4.40
2023-04-03T13:39:35.975Z,4.20
2023-04-03T13:42:31.078Z,5.20
2023-04-03T13:45:30.331Z,3.70
2023-04-03T13:48:24.230Z,4.10
2023-04-03T13:51:03.824Z,4.40
2023-04-03T13:53:35.158Z,5.10
2023-04-03T13:56:04.672Z,4.90
2023-04-03T13:58:35.629Z,4.10
2023-04-03T14:01:13.797Z,4.70
2023-04-03T14:03:48.024Z,5.70
2023-04-03T14:06:19.583Z,4.70
2023-04-03T14:08:50.423Z,4.00
2023-04-03T14:11:22.610Z,6.00
2023-04-03T14:13:52.968Z,3.40
2023-04-03T14:16:26.758Z,4.70
2023-04-03T14:18:55.934Z,4.50
2023-04-03T14:21:25.145Z,4.10
2023-04-03T14:23:54.027Z,4.60
2023-04-03T14:26:25.392Z,5.10
2023-04-03T14:28:58.646Z,4.00
2023-04-03T14:31:27.994Z,5.60
2023-04-03T14:33:57.332Z,4.40
2023-04-03T14:36:28.942Z,6.70
2023-04-03T14:38:59.482Z,3.70
2023-04-03T14:41:29.511Z,4.50
2023-04-03T14:43:59.850Z,4.30
2023-04-03T14:46:54.318Z,3.30
2023-04-03T14:49:30.663Z,4.60
2023-04-03T14:52:00.390Z,3.40
2023-04-03T14:54:31.057Z,4.50
2023-04-03T14:57:02.962Z,4.70
2023-04-03T14:59:34.320Z,4.20
2023-04-03T15:02:25.188Z,3.30
2023-04-03T15:04:59.353Z,5.00
2023-04-03T15:07:32.812Z,5.10
2023-04-03T15:10:21.975Z,5.60
2023-04-03T15:12:51.904Z,6.00
2023-04-03T15:15:22.692Z,4.30
2023-04-03T15:17:59.671Z,4.60
2023-04-03T15:20:32.227Z,2.60
2023-04-03T15:23:03.134Z,5.00
2023-04-03T15:25:34.845Z,5.50
2023-04-03T15:28:05.681Z,4.00
2023-04-03T15:30:42.115Z,5.30
2023-04-03T15:33:12.487Z,3.80
2023-04-03T15:35:42.454Z,3.80
2023-04-03T15:38:12.900Z,6.10
2023-04-03T15:40:42.568Z,4.40
2023-04-03T15:43:12.484Z,3.60
2023-04-03T15:45:42.706Z,4.00
2023-04-03T15:48:13.279Z,5.50
2023-04-03T15:50:44.724Z,2.90
2023-04-03T15:53:17.544Z,3.00
2023-04-03T15:55:50.416Z,4.20
2023-04-03T15:58:20.598Z,3.70
2023-04-03T16:00:51.297Z,4.30
2023-04-03T16:03:26.922Z,6.50
2023-04-03T16:05:59.506Z,4.80
2023-04-03T16:08:30.554Z,4.50
2023-04-03T16:11:00.133Z,7.10
2023-04-03T16:13:30.053Z,4.20
2023-04-03T16:15:59.831Z,5.00
2023-04-03T16:18:31.856Z,4.60
2023-04-03T16:21:04.273Z,3.60
2023-04-03T16:23:37.964Z,3.90
2023-04-03T16:26:08.655Z,4.90
2023-04-03T16:28:39.137Z,4.30
2023-04-03T16:31:12.380Z,4.70
2023-04-03T16:33:42.729Z,3.80
2023-04-03T16:36:14.954Z,3.70
2023-04-03T16:38:44.429Z,4.20
2023-04-03T16:41:16.018Z,3.60
2023-04-03T16:43:49.410Z,6.50
2023-04-03T16:46:19.448Z,38.60
2023-04-03T16:48:49.949Z,13.40
2023-04-03T16:51:19.721Z,11.70
2023-04-03T16:53:49.359Z,10.30
2023-04-03T16:56:20.158Z,4.60
2023-04-03T16:58:50.357Z,5.10
2023-04-03T17:01:22.774Z,4.50
2023-04-03T17:03:52.793Z,4.90
2023-04-03T17:06:24.712Z,6.60
2023-04-03T17:08:54.612Z,3.20
2023-04-03T17:11:24.100Z,3.40
2023-04-03T17:13:53.505Z,4.30
2023-04-03T17:16:23.285Z,3.50
2023-04-03T17:18:54.333Z,4.50
2023-04-03T17:21:24.315Z,5.60
2023-04-03T17:24:00.913Z,4.60
2023-04-03T17:26:31.447Z,5.80
2023-04-03T17:29:01.386Z,4.20
2023-04-03T17:31:31.602Z,4.60
2023-04-03T17:34:03.758Z,4.60
2023-04-03T17:36:35.829Z,6.40
2023-04-03T17:39:06.984Z,4.50
2023-04-03T17:41:37.467Z,4.80
2023-04-03T17:44:08.598Z,4.10
2023-04-03T17:46:38.843Z,6.70
2023-04-03T17:49:10.485Z,5.90
2023-04-03T17:51:40.266Z,5.20
2023-04-03T17:54:09.561Z,5.30
2023-04-03T17:56:39.265Z,6.80
2023-04-03T17:59:08.506Z,6.10
2023-04-03T18:01:38.652Z,4.00
2023-04-03T18:04:08.757Z,5.90
2023-04-03T18:06:46.262Z,5.90
2023-04-03T18:09:26.772Z,5.40
2023-04-03T18:11:57.776Z,5.00
2023-04-03T18:14:28.723Z,6.50
2023-04-03T18:16:59.529Z,5.70
2023-04-03T18:19:30.172Z,4.40
2023-04-03T18:22:07.320Z,4.50
2023-04-03T18:24:37.412Z,10.20
2023-04-03T18:27:16.671Z,13.30
2023-04-03T18:29:49.969Z,18.70
2023-04-03T18:32:24.232Z,62.60
2023-04-03T18:34:54.267Z,111.00
2023-04-03T18:37:24.896Z,40.40
2023-04-03T18:39:54.187Z,37.10
2023-04-03T18:42:26.634Z,14.80
2023-04-03T18:45:01.029Z,21.50
2023-04-03T18:47:32.678Z,11.10
2023-04-03T18:50:03.803Z,8.30
2023-04-03T18:52:33.205Z,7.20
2023-04-03T18:55:02.295Z,6.90
2023-04-03T18:57:31.846Z,7.00
2023-04-03T19:00:02.033Z,5.20
2023-04-03T19:02:32.287Z,9.60
2023-04-03T19:05:02.589Z,4.80
2023-04-03T19:07:34.102Z,2.90
2023-04-03T19:10:06.728Z,6.90
2023-04-03T19:12:38.561Z,7.90
2023-04-03T19:15:09.965Z,6.00
2023-04-03T19:17:40.224Z,4.80
2023-04-03T19:20:12.251Z,4.30
2023-04-03T19:22:44.548Z,5.10
2023-04-03T19:25:15.913Z,3.80
2023-04-03T19:27:45.811Z,4.20
2023-04-03T19:30:15.628Z,4.50
2023-04-03T19:32:45.602Z,3.80
2023-04-03T19:35:14.584Z,7.20
2023-04-03T19:37:43.904Z,4.50
2023-04-03T19:40:13.646Z,3.70
2023-04-03T19:42:43.464Z,5.00
2023-04-03T19:45:15.276Z,9.10
2023-04-03T19:47:45.474Z,5.30
2023-04-03T19:50:14.785Z,5.80
2023-04-03T19:52:43.835Z,4.60
2023-04-03T19:55:13.407Z,3.50
2023-04-03T19:57:42.413Z,3.40
2023-04-03T20:00:12.010Z,3.40
2023-04-03T20:02:41.220Z,3.80
2023-04-03T20:05:11.976Z,4.20
2023-04-03T20:07:42.216Z,4.90
2023-04-03T20:10:12.889Z,2.60
2023-04-03T20:12:43.411Z,3.60
2023-04-03T20:15:12.923Z,3.10
2023-04-03T20:17:42.561Z,3.70
2023-04-03T20:20:13.352Z,3.90
2023-04-03T20:22:43.203Z,4.90
2023-04-03T20:25:17.423Z,3.00
2023-04-03T20:27:55.024Z,4.10
2023-04-03T20:30:25.287Z,3.20
2023-04-03T20:32:55.115Z,4.40
2023-04-03T20:35:25.788Z,4.30
2023-04-03T20:37:56.495Z,10.50
2023-04-03T20:40:28.526Z,4.00
2023-04-03T20:42:59.374Z,4.40
2023-04-03T20:45:32.797Z,3.10
2023-04-03T20:48:05.050Z,3.90
2023-04-03T20:50:35.020Z,3.60
2023-04-03T20:53:04.101Z,3.50
2023-04-03T20:55:34.419Z,5.20
2023-04-03T20:58:04.895Z,4.40
2023-04-03T21:00:34.340Z,5.70
2023-04-03T21:03:03.720Z,3.70
2023-04-03T21:05:35.226Z,4.80
2023-04-03T21:08:42.813Z,5.00
2023-04-03T21:11:49.136Z,5.00
2023-04-03T21:14:55.506Z,5.20
2023-04-03T21:17:24.270Z,5.80
2023-04-03T21:19:53.628Z,4.00
2023-04-03T21:22:23.115Z,4.90
2023-04-03T21:24:51.989Z,4.20
2023-04-03T21:27:21.240Z,5.10
2023-04-03T21:29:50.793Z,5.00
2023-04-03T21:32:19.689Z,3.90
2023-04-03T21:34:48.948Z,4.70
2023-04-03T21:37:18.370Z,5.50
2023-04-03T21:39:47.800Z,4.90
2023-04-03T21:42:17.034Z,5.40
2023-04-03T21:44:46.459Z,50.30
2023-04-03T21:47:16.784Z,29.00
2023-04-03T21:49:45.745Z,13.70
2023-04-03T21:52:14.583Z,21.20
2023-04-03T21:54:43.951Z,8.50
2023-04-03T21:57:12.616Z,68.00
2023-04-03T21:59:42.715Z,57.10
2023-04-03T22:02:12.105Z,11.50
2023-04-03T22:04:41.881Z,5.80
2023-04-03T22:07:11.398Z,8.60
2023-04-03T22:09:41.651Z,6.70
2023-04-03T22:12:13.184Z,5.80
2023-04-03T22:14:42.614Z,7.10
2023-04-03T22:17:11.910Z,6.00
2023-04-03T22:19:40.974Z,10.40
2023-04-03T22:22:10.056Z,7.70
2023-04-03T22:24:38.970Z,5.80
2023-04-03T22:27:08.304Z,6.30
2023-04-03T22:29:37.577Z,4.70
2023-04-03T22:32:07.440Z,5.00
2023-04-03T22:34:38.653Z,3.50
2023-04-03T22:37:08.264Z,7.00
2023-04-03T22:39:37.777Z,6.50
2023-04-03T22:42:08.173Z,7.60
2023-04-03T22:44:37.432Z,6.30
2023-04-03T22:47:07.299Z,6.30
2023-04-03T22:49:36.082Z,6.30
2023-04-03T22:52:05.899Z,6.40
2023-04-03T22:54:34.775Z,6.50
2023-04-03T22:57:04.356Z,4.70
2023-04-03T22:59:33.473Z,5.80
2023-04-03T23:02:02.631Z,6.40
2023-04-03T23:04:31.754Z,5.50
2023-04-03T23:07:01.321Z,5.90
2023-04-03T23:09:30.363Z,5.70
2023-04-03T23:11:59.979Z,4.90
2023-04-03T23:14:29.103Z,5.70
2023-04-03T23:17:05.923Z,5.60
2023-04-03T23:19:35.773Z,4.60
2023-04-03T23:22:05.029Z,5.90
2023-04-03T23:24:34.180Z,5.40
2023-04-03T23:27:03.619Z,5.70
2023-04-03T23:29:33.616Z,5.40
2023-04-03T23:32:03.136Z,8.00
2023-04-03T23:34:31.782Z,6.60
2023-04-03T23:37:00.905Z,5.00
2023-04-03T23:39:29.701Z,6.90
2023-04-03T23:41:59.250Z,7.50
2023-04-03T23:44:28.309Z,6.90
2023-04-03T23:46:58.451Z,6.20
2023-04-03T23:49:28.024Z,8.10
2023-04-03T23:51:57.928Z,6.90
2023-04-03T23:54:27.278Z,5.60
2023-04-03T23:56:56.949Z,6.70
2023-04-03T23:59:26.585Z,8.00
